sensor_id;sensor_type;location;lat;lon;timestamp;pressure;altitude;pressure_sealevel;temperature;humidity
42847;BME280;28495;49.916;14.536;2023-04-05T00:04:49;97496.03;;;0.75;53.21
42847;BME280;28495;49.916;14.536;2023-04-05T00:10:11;97499.81;;;0.66;53.02
42847;BME280;28495;49.916;14.536;2023-04-05T00:15:32;97501.38;;;0.48;53.16
42847;BME280;28495;49.916;14.536;2023-04-05T00:20:53;97488.06;;;0.60;53.71
42847;BME280;28495;49.916;14.536;2023-04-05T00:26:14;97481.06;;;0.64;53.53
42847;BME280;28495;49.916;14.536;2023-04-05T00:31:39;97478.59;;;0.61;53.87
42847;BME280;28495;49.916;14.536;2023-04-05T00:37:00;97473.34;;;0.64;53.51
42847;BME280;28495;49.916;14.536;2023-04-05T00:42:21;97474.69;;;0.52;53.47
42847;BME280;28495;49.916;14.536;2023-04-05T00:47:42;97474.44;;;0.36;53.47
42847;BME280;28495;49.916;14.536;2023-04-05T00:53:04;97464.66;;;0.24;53.56
42847;BME280;28495;49.916;14.536;2023-04-05T00:58:25;97459.34;;;0.28;53.68
42847;BME280;28495;49.916;14.536;2023-04-05T01:03:48;97459.31;;;0.30;53.83
42847;BME280;28495;49.916;14.536;2023-04-05T01:14:47;97449.63;;;0.37;54.18
42847;BME280;28495;49.916;14.536;2023-04-05T01:20:10;97434.94;;;0.40;53.85
42847;BME280;28495;49.916;14.536;2023-04-05T01:31:31;97431.31;;;0.46;54.27
42847;BME280;28495;49.916;14.536;2023-04-05T01:37:01;97430.78;;;0.38;53.78
42847;BME280;28495;49.916;14.536;2023-04-05T01:42:24;97420.97;;;0.48;53.83
42847;BME280;28495;49.916;14.536;2023-04-05T01:47:45;97430.00;;;0.36;54.09
42847;BME280;28495;49.916;14.536;2023-04-05T01:53:07;97419.28;;;0.47;53.91
42847;BME280;28495;49.916;14.536;2023-04-05T01:58:28;97425.88;;;0.54;53.86
42847;BME280;28495;49.916;14.536;2023-04-05T02:03:48;97422.72;;;0.47;53.71
42847;BME280;28495;49.916;14.536;2023-04-05T02:09:09;97426.16;;;0.46;53.97
42847;BME280;28495;49.916;14.536;2023-04-05T02:14:31;97423.69;;;0.44;53.55
42847;BME280;28495;49.916;14.536;2023-04-05T02:19:51;97423.09;;;0.38;53.70
42847;BME280;28495;49.916;14.536;2023-04-05T02:25:13;97416.03;;;0.43;53.60
42847;BME280;28495;49.916;14.536;2023-04-05T02:30:34;97410.00;;;0.44;53.50
42847;BME280;28495;49.916;14.536;2023-04-05T02:35:54;97408.44;;;0.40;53.76
42847;BME280;28495;49.916;14.536;2023-04-05T02:41:15;97401.78;;;0.36;53.62
42847;BME280;28495;49.916;14.536;2023-04-05T02:46:37;97403.22;;;0.21;53.69
42847;BME280;28495;49.916;14.536;2023-04-05T02:51:58;97406.97;;;0.12;53.54
42847;BME280;28495;49.916;14.536;2023-04-05T02:57:19;97404.50;;;0.09;53.35
42847;BME280;28495;49.916;14.536;2023-04-05T03:02:47;97403.63;;;0.10;53.54
42847;BME280;28495;49.916;14.536;2023-04-05T03:08:09;97405.06;;;-0.05;53.62
42847;BME280;28495;49.916;14.536;2023-04-05T03:13:45;97398.25;;;-0.06;53.61
42847;BME280;28495;49.916;14.536;2023-04-05T03:19:18;97401.94;;;-0.13;53.71
42847;BME280;28495;49.916;14.536;2023-04-05T03:24:46;97399.63;;;0.03;53.82
42847;BME280;28495;49.916;14.536;2023-04-05T03:30:10;97394.22;;;0.10;53.95
42847;BME280;28495;49.916;14.536;2023-04-05T03:35:37;97392.34;;;0.14;53.99
42847;BME280;28495;49.916;14.536;2023-04-05T03:41:01;97380.91;;;0.23;54.14
42847;BME280;28495;49.916;14.536;2023-04-05T03:46:22;97390.44;;;0.19;53.47
42847;BME280;28495;49.916;14.536;2023-04-05T03:51:44;97397.25;;;-0.02;53.58
42847;BME280;28495;49.916;14.536;2023-04-05T03:57:06;97395.50;;;-0.02;53.86
42847;BME280;28495;49.916;14.536;2023-04-05T04:02:27;97390.69;;;-0.09;53.45
42847;BME280;28495;49.916;14.536;2023-04-05T04:07:48;97393.34;;;-0.12;53.61
42847;BME280;28495;49.916;14.536;2023-04-05T04:13:11;97404.50;;;-0.13;53.70
42847;BME280;28495;49.916;14.536;2023-04-05T04:18:32;97392.16;;;-0.26;53.51
42847;BME280;28495;49.916;14.536;2023-04-05T04:24:16;97383.31;;;-0.41;53.92
42847;BME280;28495;49.916;14.536;2023-04-05T04:29:44;97393.50;;;-0.39;54.21
42847;BME280;28495;49.916;14.536;2023-04-05T04:35:36;97394.53;;;-0.21;54.31
42847;BME280;28495;49.916;14.536;2023-04-05T04:41:22;97389.88;;;-0.34;53.62
42847;BME280;28495;49.916;14.536;2023-04-05T04:47:05;97397.66;;;-0.37;54.22
42847;BME280;28495;49.916;14.536;2023-04-05T04:52:53;97400.00;;;-0.31;54.39
42847;BME280;28495;49.916;14.536;2023-04-05T04:58:13;97400.22;;;0.09;54.38
42847;BME280;28495;49.916;14.536;2023-04-05T05:03:38;97397.25;;;0.42;54.68
42847;BME280;28495;49.916;14.536;2023-04-05T05:08:59;97396.47;;;0.61;54.05
42847;BME280;28495;49.916;14.536;2023-04-05T05:14:22;97397.47;;;0.79;53.86
42847;BME280;28495;49.916;14.536;2023-04-05T05:19:44;97399.88;;;1.03;54.95
42847;BME280;28495;49.916;14.536;2023-04-05T05:25:05;97394.53;;;1.28;54.43
42847;BME280;28495;49.916;14.536;2023-04-05T05:30:26;97398.50;;;1.35;53.70
42847;BME280;28495;49.916;14.536;2023-04-05T05:35:49;97401.91;;;1.15;53.98
42847;BME280;28495;49.916;14.536;2023-04-05T05:41:10;97402.66;;;1.19;53.98
42847;BME280;28495;49.916;14.536;2023-04-05T05:46:31;97395.84;;;0.97;54.22
42847;BME280;28495;49.916;14.536;2023-04-05T05:51:52;97394.06;;;0.99;53.79
42847;BME280;28495;49.916;14.536;2023-04-05T05:57:13;97400.09;;;0.98;54.80
42847;BME280;28495;49.916;14.536;2023-04-05T06:02:34;97395.44;;;1.27;54.79
42847;BME280;28495;49.916;14.536;2023-04-05T06:07:54;97398.31;;;1.78;55.97
42847;BME280;28495;49.916;14.536;2023-04-05T06:13:15;97400.81;;;1.99;55.16
42847;BME280;28495;49.916;14.536;2023-04-05T06:18:37;97395.03;;;2.31;54.28
42847;BME280;28495;49.916;14.536;2023-04-05T06:23:57;97389.47;;;2.57;54.10
42847;BME280;28495;49.916;14.536;2023-04-05T06:29:18;97391.59;;;2.84;53.51
42847;BME280;28495;49.916;14.536;2023-04-05T06:34:39;97388.84;;;3.05;53.11
42847;BME280;28495;49.916;14.536;2023-04-05T06:40:00;97393.03;;;3.08;52.40
42847;BME280;28495;49.916;14.536;2023-04-05T06:45:22;97392.50;;;3.01;53.06
42847;BME280;28495;49.916;14.536;2023-04-05T06:50:42;97395.00;;;3.02;52.66
42847;BME280;28495;49.916;14.536;2023-04-05T06:56:03;97389.88;;;3.18;52.73
42847;BME280;28495;49.916;14.536;2023-04-05T07:01:24;97384.97;;;2.96;51.80
42847;BME280;28495;49.916;14.536;2023-04-05T07:06:46;97386.50;;;3.34;52.74
42847;BME280;28495;49.916;14.536;2023-04-05T07:12:07;97387.00;;;3.41;52.47
42847;BME280;28495;49.916;14.536;2023-04-05T07:17:28;97387.50;;;3.31;51.67
42847;BME280;28495;49.916;14.536;2023-04-05T07:22:49;97386.16;;;3.24;51.66
42847;BME280;28495;49.916;14.536;2023-04-05T07:28:09;97387.22;;;3.54;52.04
42847;BME280;28495;49.916;14.536;2023-04-05T07:33:30;97378.72;;;3.51;51.80
42847;BME280;28495;49.916;14.536;2023-04-05T07:38:55;97379.22;;;3.42;51.65
42847;BME280;28495;49.916;14.536;2023-04-05T07:44:17;97376.28;;;3.32;51.56
42847;BME280;28495;49.916;14.536;2023-04-05T07:49:38;97382.91;;;3.54;51.78
42847;BME280;28495;49.916;14.536;2023-04-05T07:54:58;97373.75;;;3.64;51.89
42847;BME280;28495;49.916;14.536;2023-04-05T08:00:20;97371.78;;;3.70;51.57
42847;BME280;28495;49.916;14.536;2023-04-05T08:05:41;97372.34;;;3.91;51.91
42847;BME280;28495;49.916;14.536;2023-04-05T08:11:02;97372.91;;;3.96;51.32
42847;BME280;28495;49.916;14.536;2023-04-05T08:16:23;97375.81;;;4.06;52.11
42847;BME280;28495;49.916;14.536;2023-04-05T08:21:44;97375.34;;;4.15;51.69
42847;BME280;28495;49.916;14.536;2023-04-05T08:27:04;97367.50;;;4.17;51.67
42847;BME280;28495;49.916;14.536;2023-04-05T08:32:26;97371.63;;;4.35;52.05
42847;BME280;28495;49.916;14.536;2023-04-05T08:37:46;97373.09;;;4.39;51.11
42847;BME280;28495;49.916;14.536;2023-04-05T08:48:52;97360.94;;;4.11;50.97
42847;BME280;28495;49.916;14.536;2023-04-05T08:54:13;97364.25;;;3.97;50.53
42847;BME280;28495;49.916;14.536;2023-04-05T08:59:38;97359.50;;;3.89;51.43
42847;BME280;28495;49.916;14.536;2023-04-05T09:05:01;97360.69;;;3.84;51.25
42847;BME280;28495;49.916;14.536;2023-04-05T09:10:23;97345.94;;;4.18;51.20
42847;BME280;28495;49.916;14.536;2023-04-05T09:15:47;97349.00;;;4.55;51.00
42847;BME280;28495;49.916;14.536;2023-04-05T09:21:08;97337.88;;;4.83;50.74
42847;BME280;28495;49.916;14.536;2023-04-05T09:26:30;97334.28;;;5.00;50.57
42847;BME280;28495;49.916;14.536;2023-04-05T09:31:53;97333.75;;;4.81;50.20
42847;BME280;28495;49.916;14.536;2023-04-05T09:37:19;97336.34;;;4.95;50.03
42847;BME280;28495;49.916;14.536;2023-04-05T09:42:43;97340.84;;;4.92;49.63
42847;BME280;28495;49.916;14.536;2023-04-05T09:48:08;97336.69;;;4.89;49.70
42847;BME280;28495;49.916;14.536;2023-04-05T09:53:29;97329.50;;;4.94;49.56
42847;BME280;28495;49.916;14.536;2023-04-05T09:58:51;97328.66;;;5.23;49.73
42847;BME280;28495;49.916;14.536;2023-04-05T10:04:11;97319.44;;;5.47;49.43
42847;BME280;28495;49.916;14.536;2023-04-05T10:09:32;97326.34;;;5.47;49.07
42847;BME280;28495;49.916;14.536;2023-04-05T10:14:55;97324.97;;;5.12;48.14
42847;BME280;28495;49.916;14.536;2023-04-05T10:31:39;97332.56;;;4.56;48.95
42847;BME280;28495;49.916;14.536;2023-04-05T10:37:05;97323.72;;;4.60;49.07
42847;BME280;28495;49.916;14.536;2023-04-05T10:42:27;97320.53;;;4.40;49.06
42847;BME280;28495;49.916;14.536;2023-04-05T10:48:01;97319.28;;;4.48;49.04
42847;BME280;28495;49.916;14.536;2023-04-05T10:53:26;97311.09;;;4.55;48.91
42847;BME280;28495;49.916;14.536;2023-04-05T10:58:48;97303.94;;;4.90;49.90
42847;BME280;28495;49.916;14.536;2023-04-05T11:04:12;97301.41;;;5.31;49.66
42847;BME280;28495;49.916;14.536;2023-04-05T11:09:33;97301.41;;;5.31;48.58
42847;BME280;28495;49.916;14.536;2023-04-05T11:20:52;97292.00;;;5.30;47.93
42847;BME280;28495;49.916;14.536;2023-04-05T11:26:15;97293.59;;;5.18;48.08
42847;BME280;28495;49.916;14.536;2023-04-05T11:31:56;97287.09;;;5.26;48.08
42847;BME280;28495;49.916;14.536;2023-04-05T11:37:17;97281.91;;;5.40;48.35
42847;BME280;28495;49.916;14.536;2023-04-05T11:42:38;97279.22;;;5.56;48.04
42847;BME280;28495;49.916;14.536;2023-04-05T11:48:10;97279.81;;;5.32;47.73
42847;BME280;28495;49.916;14.536;2023-04-05T11:53:31;97273.41;;;5.38;48.05
42847;BME280;28495;49.916;14.536;2023-04-05T11:58:57;97270.09;;;5.51;48.16
42847;BME280;28495;49.916;14.536;2023-04-05T12:04:18;97272.31;;;5.42;47.47
42847;BME280;28495;49.916;14.536;2023-04-05T12:10:02;97272.16;;;5.31;47.27
42847;BME280;28495;49.916;14.536;2023-04-05T12:15:24;97274.13;;;5.13;46.92
42847;BME280;28495;49.916;14.536;2023-04-05T12:20:44;97271.78;;;5.23;47.48
42847;BME280;28495;49.916;14.536;2023-04-05T12:26:06;97263.09;;;5.24;47.10
42847;BME280;28495;49.916;14.536;2023-04-05T12:36:59;97256.06;;;5.26;47.27
42847;BME280;28495;49.916;14.536;2023-04-05T12:42:20;97253.66;;;5.37;47.04
42847;BME280;28495;49.916;14.536;2023-04-05T12:47:48;97246.84;;;5.63;47.33
42847;BME280;28495;49.916;14.536;2023-04-05T12:53:18;97247.88;;;5.61;47.07
42847;BME280;28495;49.916;14.536;2023-04-05T12:58:43;97249.38;;;5.78;46.85
42847;BME280;28495;49.916;14.536;2023-04-05T13:04:08;97242.88;;;5.58;46.29
42847;BME280;28495;49.916;14.536;2023-04-05T13:09:36;97236.34;;;5.52;46.62
42847;BME280;28495;49.916;14.536;2023-04-05T13:14:57;97234.53;;;5.40;46.65
42847;BME280;28495;49.916;14.536;2023-04-05T13:20:17;97239.56;;;5.28;46.51
42847;BME280;28495;49.916;14.536;2023-04-05T13:25:40;97244.53;;;5.31;47.07
42847;BME280;28495;49.916;14.536;2023-04-05T13:31:02;97229.88;;;5.45;46.76
42847;BME280;28495;49.916;14.536;2023-04-05T13:36:23;97230.72;;;5.45;46.46
42847;BME280;28495;49.916;14.536;2023-04-05T13:41:44;97227.22;;;5.46;46.96
42847;BME280;28495;49.916;14.536;2023-04-05T13:47:05;97220.22;;;5.61;47.16
42847;BME280;28495;49.916;14.536;2023-04-05T13:52:25;97218.09;;;5.41;46.87
42847;BME280;28495;49.916;14.536;2023-04-05T13:57:47;97220.88;;;5.38;46.77
42847;BME280;28495;49.916;14.536;2023-04-05T14:03:07;97229.56;;;5.37;47.21
42847;BME280;28495;49.916;14.536;2023-04-05T14:08:28;97217.00;;;6.77;49.10
42847;BME280;28495;49.916;14.536;2023-04-05T14:13:50;97213.38;;;6.41;46.82
42847;BME280;28495;49.916;14.536;2023-04-05T14:19:11;97215.28;;;5.99;46.60
42847;BME280;28495;49.916;14.536;2023-04-05T14:24:32;97210.06;;;5.86;46.68
42847;BME280;28495;49.916;14.536;2023-04-05T14:29:53;97204.38;;;5.80;46.23
42847;BME280;28495;49.916;14.536;2023-04-05T14:35:17;97199.56;;;5.74;46.77
42847;BME280;28495;49.916;14.536;2023-04-05T14:40:38;97197.38;;;5.68;46.49
42847;BME280;28495;49.916;14.536;2023-04-05T14:45:59;97207.22;;;5.63;46.58
42847;BME280;28495;49.916;14.536;2023-04-05T14:51:20;97208.47;;;5.70;46.69
42847;BME280;28495;49.916;14.536;2023-04-05T14:56:41;97207.22;;;5.63;47.34
42847;BME280;28495;49.916;14.536;2023-04-05T15:02:02;97208.94;;;5.62;47.32
42847;BME280;28495;49.916;14.536;2023-04-05T15:07:23;97202.22;;;5.60;46.93
42847;BME280;28495;49.916;14.536;2023-04-05T15:12:44;97204.25;;;5.42;46.97
42847;BME280;28495;49.916;14.536;2023-04-05T15:18:05;97203.31;;;5.43;46.94
42847;BME280;28495;49.916;14.536;2023-04-05T15:23:27;97199.81;;;5.44;47.56
42847;BME280;28495;49.916;14.536;2023-04-05T15:28:48;97198.78;;;5.46;47.57
42847;BME280;28495;49.916;14.536;2023-04-05T15:34:08;97196.75;;;5.37;46.85
42847;BME280;28495;49.916;14.536;2023-04-05T15:39:30;97198.69;;;5.33;47.02
42847;BME280;28495;49.916;14.536;2023-04-05T15:44:50;97196.75;;;5.37;47.26
42847;BME280;28495;49.916;14.536;2023-04-05T15:50:11;97197.09;;;5.45;47.21
42847;BME280;28495;49.916;14.536;2023-04-05T15:55:33;97199.09;;;5.55;47.61
42847;BME280;28495;49.916;14.536;2023-04-05T16:00:53;97204.25;;;5.42;47.17
42847;BME280;28495;49.916;14.536;2023-04-05T16:06:15;97198.56;;;5.49;47.27
42847;BME280;28495;49.916;14.536;2023-04-05T16:11:36;97193.84;;;5.56;47.10
42847;BME280;28495;49.916;14.536;2023-04-05T16:16:57;97195.28;;;5.60;47.41
42847;BME280;28495;49.916;14.536;2023-04-05T16:22:17;97192.41;;;5.65;46.66
42847;BME280;28495;49.916;14.536;2023-04-05T16:27:38;97195.28;;;5.60;47.34
42847;BME280;28495;49.916;14.536;2023-04-05T16:32:59;97197.69;;;5.63;47.50
42847;BME280;28495;49.916;14.536;2023-04-05T16:38:20;97188.50;;;5.72;47.40
42847;BME280;28495;49.916;14.536;2023-04-05T16:43:41;97192.84;;;5.72;47.17
42847;BME280;28495;49.916;14.536;2023-04-05T16:49:02;97195.00;;;5.65;47.28
42847;BME280;28495;49.916;14.536;2023-04-05T16:54:23;97195.69;;;5.54;47.78
42847;BME280;28495;49.916;14.536;2023-04-05T16:59:45;97195.16;;;5.49;47.93
42847;BME280;28495;49.916;14.536;2023-04-05T17:05:06;97192.31;;;5.39;47.99
42847;BME280;28495;49.916;14.536;2023-04-05T17:10:27;97196.41;;;5.29;48.15
42847;BME280;28495;49.916;14.536;2023-04-05T17:15:48;97194.91;;;5.12;48.31
42847;BME280;28495;49.916;14.536;2023-04-05T17:21:08;97198.22;;;5.14;48.72
42847;BME280;28495;49.916;14.536;2023-04-05T17:26:31;97189.88;;;5.23;48.95
42847;BME280;28495;49.916;14.536;2023-04-05T17:31:52;97198.69;;;5.33;49.32
42847;BME280;28495;49.916;14.536;2023-04-05T17:37:13;97195.22;;;5.20;48.52
42847;BME280;28495;49.916;14.536;2023-04-05T17:42:34;97203.16;;;4.90;48.77
42847;BME280;28495;49.916;14.536;2023-04-05T17:47:55;97207.31;;;4.78;49.14
42847;BME280;28495;49.916;14.536;2023-04-05T17:53:16;97213.28;;;4.78;48.81
42847;BME280;28495;49.916;14.536;2023-04-05T17:58:39;97219.75;;;4.56;48.74
42847;BME280;28495;49.916;14.536;2023-04-05T18:03:59;97225.09;;;4.39;48.92
42847;BME280;28495;49.916;14.536;2023-04-05T18:09:21;97232.19;;;4.35;49.12
42847;BME280;28495;49.916;14.536;2023-04-05T18:14:41;97236.06;;;4.42;49.38
42847;BME280;28495;49.916;14.536;2023-04-05T18:20:03;97239.09;;;4.35;49.44
42847;BME280;28495;49.916;14.536;2023-04-05T18:25:25;97246.69;;;4.07;49.34
42847;BME280;28495;49.916;14.536;2023-04-05T18:30:46;97241.44;;;4.09;49.55
42847;BME280;28495;49.916;14.536;2023-04-05T18:36:09;97253.75;;;4.20;50.15
42847;BME280;28495;49.916;14.536;2023-04-05T18:41:34;97253.16;;;4.15;49.44
42847;BME280;28495;49.916;14.536;2023-04-05T18:46:55;97261.63;;;4.02;49.66
42847;BME280;28495;49.916;14.536;2023-04-05T18:52:17;97271.84;;;4.04;50.05
42847;BME280;28495;49.916;14.536;2023-04-05T18:57:41;97272.63;;;3.90;50.28
42847;BME280;28495;49.916;14.536;2023-04-05T19:03:02;97273.72;;;3.86;50.69
42847;BME280;28495;49.916;14.536;2023-04-05T19:08:24;97277.47;;;3.80;50.48
42847;BME280;28495;49.916;14.536;2023-04-05T19:13:45;97281.94;;;3.92;50.26
42847;BME280;28495;49.916;14.536;2023-04-05T19:19:06;97277.25;;;3.99;50.44
42847;BME280;28495;49.916;14.536;2023-04-05T19:24:27;97284.94;;;3.85;50.17
42847;BME280;28495;49.916;14.536;2023-04-05T19:29:48;97284.03;;;3.86;50.75
42847;BME280;28495;49.916;14.536;2023-04-05T19:35:09;97285.28;;;3.78;50.58
42847;BME280;28495;49.916;14.536;2023-04-05T19:40:30;97288.97;;;3.74;53.58
42847;BME280;28495;49.916;14.536;2023-04-05T19:45:55;97286.84;;;3.97;50.78
42847;BME280;28495;49.916;14.536;2023-04-05T19:51:16;97295.28;;;3.85;50.41
42847;BME280;28495;49.916;14.536;2023-04-05T19:56:39;97291.88;;;3.84;50.80
42847;BME280;28495;49.916;14.536;2023-04-05T20:02:01;97282.03;;;3.75;50.26
42847;BME280;28495;49.916;14.536;2023-04-05T20:07:29;97282.47;;;3.67;50.68
42847;BME280;28495;49.916;14.536;2023-04-05T20:12:51;97290.63;;;3.59;50.87
42847;BME280;28495;49.916;14.536;2023-04-05T20:18:38;97290.72;;;3.58;50.60
42847;BME280;28495;49.916;14.536;2023-04-05T20:24:00;97284.66;;;3.59;51.01
42847;BME280;28495;49.916;14.536;2023-04-05T20:29:27;97285.72;;;3.55;51.02
42847;BME280;28495;49.916;14.536;2023-04-05T20:34:48;97277.81;;;3.58;50.66
42847;BME280;28495;49.916;14.536;2023-04-05T20:40:09;97280.97;;;3.47;51.09
42847;BME280;28495;49.916;14.536;2023-04-05T20:45:31;97281.22;;;3.42;50.93
42847;BME280;28495;49.916;14.536;2023-04-05T20:50:52;97277.25;;;3.37;50.59
42847;BME280;28495;49.916;14.536;2023-04-05T20:56:13;97275.22;;;3.42;50.50
42847;BME280;28495;49.916;14.536;2023-04-05T21:01:35;97281.41;;;3.23;50.87
42847;BME280;28495;49.916;14.536;2023-04-05T21:06:57;97275.22;;;3.10;50.87
42847;BME280;28495;49.916;14.536;2023-04-05T21:12:18;97275.19;;;2.94;50.95
42847;BME280;28495;49.916;14.536;2023-04-05T21:17:39;97275.19;;;2.94;51.37
42847;BME280;28495;49.916;14.536;2023-04-05T21:23:01;97274.28;;;2.95;51.79
42847;BME280;28495;49.916;14.536;2023-04-05T21:28:24;97268.97;;;2.98;51.27
42847;BME280;28495;49.916;14.536;2023-04-05T21:33:45;97275.28;;;3.08;51.64
42847;BME280;28495;49.916;14.536;2023-04-05T21:39:06;97274.72;;;3.19;51.79
42847;BME280;28495;49.916;14.536;2023-04-05T21:44:27;97270.94;;;2.93;51.27
42847;BME280;28495;49.916;14.536;2023-04-05T21:49:49;97272.28;;;2.66;51.11
42847;BME280;28495;49.916;14.536;2023-04-05T21:55:10;97274.47;;;2.74;51.46
42847;BME280;28495;49.916;14.536;2023-04-05T22:00:31;97270.00;;;2.78;52.25
42847;BME280;28495;49.916;14.536;2023-04-05T22:05:52;97279.72;;;2.55;51.52
42847;BME280;28495;49.916;14.536;2023-04-05T22:11:13;97267.34;;;2.46;52.34
42847;BME280;28495;49.916;14.536;2023-04-05T22:16:34;97275.72;;;2.49;52.00
42847;BME280;28495;49.916;14.536;2023-04-05T22:21:55;97278.31;;;2.49;51.95
42847;BME280;28495;49.916;14.536;2023-04-05T22:27:16;97276.09;;;2.59;52.47
42847;BME280;28495;49.916;14.536;2023-04-05T22:32:38;97267.84;;;2.52;51.99
42847;BME280;28495;49.916;14.536;2023-04-05T22:37:58;97266.13;;;2.35;51.57
42847;BME280;28495;49.916;14.536;2023-04-05T22:43:19;97266.66;;;2.42;52.43
42847;BME280;28495;49.916;14.536;2023-04-05T22:48:40;97268.63;;;2.54;52.38
42847;BME280;28495;49.916;14.536;2023-04-05T22:54:01;97258.50;;;2.67;52.28
42847;BME280;28495;49.916;14.536;2023-04-05T22:59:22;97265.31;;;2.68;52.53
42847;BME280;28495;49.916;14.536;2023-04-05T23:04:43;97260.88;;;2.54;52.14
42847;BME280;28495;49.916;14.536;2023-04-05T23:10:04;97263.28;;;2.57;52.29
42847;BME280;28495;49.916;14.536;2023-04-05T23:15:25;97260.03;;;2.54;52.08
42847;BME280;28495;49.916;14.536;2023-04-05T23:20:46;97252.84;;;2.43;52.10
42847;BME280;28495;49.916;14.536;2023-04-05T23:26:06;97263.38;;;2.38;52.33
42847;BME280;28495;49.916;14.536;2023-04-05T23:31:27;97259.53;;;2.29;52.22
42847;BME280;28495;49.916;14.536;2023-04-05T23:36:48;97252.72;;;2.28;52.49
42847;BME280;28495;49.916;14.536;2023-04-05T23:42:09;97257.97;;;2.27;52.13
42847;BME280;28495;49.916;14.536;2023-04-05T23:47:30;97254.09;;;2.18;52.54
42847;BME280;28495;49.916;14.536;2023-04-05T23:52:51;97256.19;;;2.27;52.97
42847;BME280;28495;49.916;14.536;2023-04-05T23:58:11;97247.78;;;2.41;52.57
